Time;durP1;ratioP1;P1;durP2;ratioP2;P2;SDS_P1;SDS_P2;PMS_P1;PMS_P2;Temp;Humidity;BMP_temperature;BMP_pressure;BME280_temperature;BME280_humidity;BME280_pressure;Samples;Min_cycle;Max_cycle;Signal;HPM_P1;HPM_P2
2021/04/18 00:01:14;;;;;;;16.73;9.23;;;8.90;97.60;;;;;;5036716;28;20401;-71
2021/04/18 00:03:39;;;;;;;16.60;9.00;;;8.90;97.70;;;;;;5039017;28;20084;-71
2021/04/18 00:06:05;;;;;;;16.27;8.63;;;8.90;97.60;;;;;;5040516;28;20444;-71
2021/04/18 00:08:30;;;;;;;21.02;9.13;;;8.90;97.60;;;;;;5041478;28;20030;-70
2021/04/18 00:10:56;;;;;;;18.02;9.18;;;8.90;97.50;;;;;;5033575;28;20083;-71
2021/04/18 00:13:21;;;;;;;18.40;9.27;;;9.00;97.40;;;;;;5043486;28;20470;-70
2021/04/18 00:15:47;;;;;;;19.35;10.02;;;9.00;97.40;;;;;;5015689;28;20105;-71
2021/04/18 00:18:14;;;;;;;16.42;9.57;;;9.00;97.30;;;;;;5035314;28;20022;-72
2021/04/18 00:20:40;;;;;;;21.60;10.20;;;9.10;97.20;;;;;;5033407;28;20025;-71
2021/04/18 00:23:06;;;;;;;23.17;13.65;;;9.10;97.20;;;;;;5038519;28;20047;-73
2021/04/18 00:25:32;;;;;;;27.05;13.13;;;9.10;97.10;;;;;;5034176;28;20111;-71
2021/04/18 00:27:58;;;;;;;24.23;13.30;;;9.10;97.10;;;;;;5037813;28;20021;-72
2021/04/18 00:30:24;;;;;;;22.20;12.52;;;9.00;97.10;;;;;;5033700;28;20026;-72
2021/04/18 00:32:50;;;;;;;21.95;11.90;;;9.00;97.10;;;;;;5031297;28;20029;-70
2021/04/18 00:35:19;;;;;;;24.85;11.60;;;9.00;97.10;;;;;;5032008;28;20025;-69
2021/04/18 00:37:45;;;;;;;23.58;11.48;;;8.90;97.10;;;;;;5034521;28;20506;-70
2021/04/18 00:40:23;;;;;;;22.27;12.45;;;8.90;97.30;;;;;;5033490;28;20021;-69
2021/04/18 00:42:49;;;;;;;19.73;10.65;;;8.80;97.50;;;;;;5035551;28;20030;-70
2021/04/18 00:45:16;;;;;;;22.08;11.00;;;8.80;97.40;;;;;;5033247;28;20084;-69
2021/04/18 00:47:44;;;;;;;17.15;10.20;;;8.90;97.30;;;;;;5035520;28;20856;-70
2021/04/18 00:50:13;;;;;;;19.42;10.10;;;8.90;97.30;;;;;;5033288;28;20030;-70
2021/04/18 00:52:38;;;;;;;18.92;10.40;;;8.80;97.30;;;;;;5032086;28;20026;-71
2021/04/18 00:55:06;;;;;;;16.70;10.40;;;8.90;97.30;;;;;;5021671;28;20420;-70
2021/04/18 00:57:32;;;;;;;16.38;9.10;;;8.90;97.30;;;;;;5028985;28;20513;-71
2021/04/18 01:00:05;;;;;;;15.15;8.38;;;8.90;97.20;;;;;;5032690;28;20021;-70
2021/04/18 01:02:30;;;;;;;20.55;9.60;;;8.90;97.20;;;;;;5042706;28;20044;-71
2021/04/18 01:04:56;;;;;;;14.88;8.90;;;8.90;97.10;;;;;;5043006;28;20137;-71
2021/04/18 01:07:21;;;;;;;18.70;10.30;;;8.90;97.10;;;;;;5044844;28;20021;-71
2021/04/18 01:09:47;;;;;;;18.70;9.90;;;8.90;97.00;;;;;;5042177;28;20386;-71
2021/04/18 01:12:13;;;;;;;18.40;10.30;;;8.80;97.10;;;;;;5044201;28;20602;-72
2021/04/18 01:14:38;;;;;;;20.25;10.07;;;8.80;97.10;;;;;;5049168;28;20033;-72
2021/04/18 01:17:04;;;;;;;19.40;9.98;;;8.80;97.10;;;;;;5045552;28;20032;-71
2021/04/18 01:19:30;;;;;;;16.20;10.43;;;8.90;97.10;;;;;;5052856;28;20033;-71
2021/04/18 01:21:55;;;;;;;16.42;9.63;;;8.90;97.10;;;;;;5046666;28;20025;-72
2021/04/18 01:24:21;;;;;;;20.85;9.98;;;8.80;97.10;;;;;;5052758;28;20029;-71
2021/04/18 01:26:46;;;;;;;17.00;9.43;;;8.80;97.10;;;;;;5046050;28;20104;-71
2021/04/18 01:29:12;;;;;;;18.00;9.48;;;8.80;97.40;;;;;;5052363;28;20025;-71
2021/04/18 01:31:37;;;;;;;17.80;9.23;;;8.70;97.10;;;;;;5047012;28;20036;-71
2021/04/18 01:34:03;;;;;;;19.60;11.20;;;8.70;97.20;;;;;;5052899;28;20037;-71
2021/04/18 01:36:28;;;;;;;15.35;8.82;;;8.70;97.20;;;;;;5043318;28;20025;-71
2021/04/18 01:38:55;;;;;;;21.23;10.45;;;8.80;97.20;;;;;;5052595;28;20028;-70
2021/04/18 01:41:20;;;;;;;22.77;10.15;;;8.80;97.20;;;;;;5041693;28;20017;-70
2021/04/18 01:43:46;;;;;;;27.42;10.85;;;8.80;97.10;;;;;;5042000;28;20072;-70
2021/04/18 01:46:11;;;;;;;19.92;10.27;;;8.80;97.10;;;;;;5032832;28;20040;-69
2021/04/18 01:48:37;;;;;;;17.38;10.13;;;8.70;97.10;;;;;;5031918;28;20029;-70
2021/04/18 01:51:06;;;;;;;20.02;10.32;;;8.80;97.10;;;;;;5030502;28;20079;-70
2021/04/18 01:53:32;;;;;;;19.63;10.48;;;8.80;97.20;;;;;;5044980;28;20033;-71
2021/04/18 01:55:58;;;;;;;20.58;10.02;;;8.80;97.10;;;;;;5032479;28;20036;-71
2021/04/18 01:58:25;;;;;;;23.45;9.75;;;8.80;97.20;;;;;;5045162;28;20035;-70
2021/04/18 02:00:50;;;;;;;16.85;9.40;;;8.80;97.10;;;;;;5033645;28;20505;-71
2021/04/18 02:03:15;;;;;;;21.20;9.95;;;8.80;97.00;;;;;;5042954;28;20025;-71
2021/04/18 02:05:41;;;;;;;18.20;9.65;;;8.90;97.00;;;;;;5035316;28;20140;-70
2021/04/18 02:08:07;;;;;;;15.57;9.73;;;8.90;97.00;;;;;;5042205;28;20024;-70
2021/04/18 02:10:32;;;;;;;17.48;9.73;;;8.90;96.80;;;;;;5032658;28;20612;-70
2021/04/18 02:12:58;;;;;;;18.33;9.85;;;9.00;96.80;;;;;;5040674;28;20100;-70
2021/04/18 02:15:23;;;;;;;23.25;11.68;;;9.00;96.80;;;;;;5034937;28;20044;-69
2021/04/18 02:17:49;;;;;;;20.77;11.25;;;9.00;96.80;;;;;;5039373;28;20385;-70
2021/04/18 02:20:16;;;;;;;18.05;10.88;;;9.00;96.80;;;;;;5035897;28;20022;-70
2021/04/18 02:22:43;;;;;;;21.65;12.00;;;8.90;96.80;;;;;;5038290;28;20039;-70
2021/04/18 02:25:10;;;;;;;22.27;12.20;;;8.90;96.70;;;;;;5038124;28;20041;-69
2021/04/18 02:27:36;;;;;;;19.23;10.98;;;8.90;96.80;;;;;;5037990;28;20097;-69
2021/04/18 02:30:02;;;;;;;21.08;11.73;;;8.80;96.80;;;;;;5034869;28;20429;-69
2021/04/18 02:32:28;;;;;;;19.42;11.25;;;8.80;96.90;;;;;;5029678;28;20100;-69
2021/04/18 02:34:53;;;;;;;19.40;11.10;;;8.80;96.90;;;;;;5031718;28;20112;-69
2021/04/18 02:37:19;;;;;;;18.58;11.32;;;8.90;96.80;;;;;;5035932;28;20024;-69
2021/04/18 02:39:44;;;;;;;21.40;11.68;;;8.90;96.80;;;;;;5039243;28;20110;-69
2021/04/18 02:42:10;;;;;;;21.33;11.35;;;8.90;96.90;;;;;;5039290;28;20028;-69
2021/04/18 02:44:36;;;;;;;23.17;11.77;;;8.90;96.90;;;;;;5032065;28;20064;-69
2021/04/18 02:47:02;;;;;;;23.38;11.93;;;8.80;97.10;;;;;;5032931;28;20028;-69
2021/04/18 02:49:28;;;;;;;23.50;11.93;;;8.80;97.20;;;;;;5033114;28;20033;-68
2021/04/18 02:51:53;;;;;;;25.40;11.82;;;8.70;97.00;;;;;;5037070;28;20033;-68
2021/04/18 02:54:19;;;;;;;20.33;11.70;;;8.70;97.00;;;;;;5018121;28;20052;-70
2021/04/18 02:56:44;;;;;;;20.83;11.60;;;8.70;97.10;;;;;;5029974;28;20024;-69
2021/04/18 02:59:10;;;;;;;21.85;12.90;;;8.70;97.20;;;;;;5051367;28;20108;-69
2021/04/18 03:01:35;;;;;;;21.48;12.88;;;8.60;97.40;;;;;;5040329;28;20049;-70
2021/04/18 03:04:01;;;;;;;18.92;12.38;;;8.60;97.20;;;;;;5053778;28;20458;-70
2021/04/18 03:06:27;;;;;;;18.90;13.25;;;8.60;97.20;;;;;;5037445;28;20381;-70
2021/04/18 03:08:52;;;;;;;25.63;13.63;;;8.60;97.30;;;;;;5048290;28;20033;-71
2021/04/18 03:11:18;;;;;;;25.77;12.80;;;8.60;97.30;;;;;;5054818;28;20579;-71
2021/04/18 03:13:44;;;;;;;27.77;13.48;;;8.60;97.50;;;;;;5049456;28;20029;-71
2021/04/18 03:16:10;;;;;;;27.65;14.38;;;8.70;97.30;;;;;;5037452;28;20032;-71
2021/04/18 03:18:36;;;;;;;25.48;14.27;;;8.60;97.20;;;;;;5048023;28;20382;-71
2021/04/18 03:21:02;;;;;;;26.92;15.02;;;8.60;97.30;;;;;;5035217;28;20072;-71
2021/04/18 03:23:27;;;;;;;26.10;14.30;;;8.50;97.40;;;;;;5044000;28;20048;-70
2021/04/18 03:25:53;;;;;;;24.45;13.25;;;8.50;97.50;;;;;;5034916;28;20025;-69
2021/04/18 03:28:18;;;;;;;24.75;13.25;;;8.50;97.30;;;;;;5046976;28;20029;-71
2021/04/18 03:30:44;;;;;;;26.45;15.05;;;8.50;97.30;;;;;;5017016;28;20052;-70
2021/04/18 03:33:09;;;;;;;30.10;16.15;;;8.50;97.30;;;;;;5044802;28;20035;-71
2021/04/18 03:35:35;;;;;;;32.45;17.02;;;8.40;97.30;;;;;;5036345;28;20029;-71
2021/04/18 03:38:02;;;;;;;32.05;16.85;;;8.40;97.40;;;;;;5043619;28;20029;-70
2021/04/18 03:40:29;;;;;;;25.10;14.85;;;8.40;97.40;;;;;;5034100;28;20038;-71
2021/04/18 03:42:54;;;;;;;31.83;15.55;;;8.40;97.40;;;;;;5042076;28;20496;-71
2021/04/18 03:45:20;;;;;;;31.10;16.08;;;8.50;97.40;;;;;;5054669;28;20037;-71
2021/04/18 03:47:45;;;;;;;29.02;15.95;;;8.50;97.40;;;;;;5042185;28;20021;-71
2021/04/18 03:50:12;;;;;;;34.95;17.48;;;8.50;97.30;;;;;;5041051;28;20033;-70
2021/04/18 03:52:37;;;;;;;33.53;16.92;;;8.50;97.20;;;;;;5037632;28;20075;-70
2021/04/18 03:55:04;;;;;;;29.55;16.48;;;8.50;97.20;;;;;;5032866;28;20038;-71
2021/04/18 03:57:29;;;;;;;37.58;17.73;;;8.50;97.30;;;;;;5039707;28;20053;-71
2021/04/18 03:59:55;;;;;;;37.50;19.55;;;8.50;97.40;;;;;;5053767;28;20056;-72
2021/04/18 04:02:20;;;;;;;38.28;19.92;;;8.40;97.80;;;;;;5045386;28;20042;-72
2021/04/18 04:04:46;;;;;;;44.25;19.67;;;8.20;97.80;;;;;;5036175;28;20034;-70
2021/04/18 04:07:12;;;;;;;37.33;19.45;;;8.20;97.80;;;;;;5022225;28;20036;-74
2021/04/18 04:09:38;;;;;;;37.85;17.98;;;8.20;97.70;;;;;;5051796;28;20108;-73
2021/04/18 04:12:04;;;;;;;45.45;19.83;;;8.20;97.80;;;;;;5050113;28;20461;-72
2021/04/18 04:14:29;;;;;;;40.05;20.60;;;8.20;97.80;;;;;;5052004;28;20694;-72
2021/04/18 04:16:55;;;;;;;46.72;20.58;;;8.10;97.90;;;;;;5050615;28;20105;-72
2021/04/18 04:19:20;;;;;;;41.90;20.42;;;8.10;97.90;;;;;;5051942;28;20021;-72
2021/04/18 04:21:46;;;;;;;44.17;20.27;;;8.10;97.90;;;;;;5051083;28;20365;-73
2021/04/18 04:24:11;;;;;;;40.35;20.35;;;8.10;98.00;;;;;;5053224;28;20124;-73
2021/04/18 04:26:37;;;;;;;41.22;20.13;;;8.10;98.10;;;;;;5051927;28;20477;-72
2021/04/18 04:29:03;;;;;;;37.97;20.17;;;8.20;98.10;;;;;;5050465;28;20372;-72
2021/04/18 04:31:28;;;;;;;44.22;21.02;;;8.20;98.00;;;;;;5033540;28;20029;-72
2021/04/18 04:33:54;;;;;;;42.78;21.73;;;8.30;98.00;;;;;;5031954;28;20025;-73
2021/04/18 04:36:19;;;;;;;44.33;20.88;;;8.30;98.00;;;;;;5033814;28;20151;-72
2021/04/18 04:38:45;;;;;;;39.63;21.48;;;8.30;97.90;;;;;;5048403;28;20025;-72
2021/04/18 04:41:10;;;;;;;41.30;20.10;;;8.40;97.90;;;;;;5051312;28;20492;-72
2021/04/18 04:43:36;;;;;;;41.47;21.52;;;8.40;98.10;;;;;;5044917;28;20497;-72
2021/04/18 04:46:01;;;;;;;47.08;20.48;;;8.30;98.10;;;;;;5034417;28;20389;-72
2021/04/18 04:48:27;;;;;;;39.33;19.85;;;8.10;98.00;;;;;;5028749;28;20044;-71
2021/04/18 04:50:53;;;;;;;41.85;20.30;;;8.10;98.00;;;;;;5033848;28;20061;-72
2021/04/18 04:53:18;;;;;;;45.65;20.10;;;8.10;98.20;;;;;;5027000;28;20232;-72
2021/04/18 04:55:46;;;;;;;39.75;19.60;;;8.10;98.30;;;;;;5053308;28;20071;-71
2021/04/18 04:58:12;;;;;;;36.47;18.85;;;8.10;98.30;;;;;;5049551;28;20461;-71
2021/04/18 05:00:37;;;;;;;41.42;19.90;;;8.20;98.30;;;;;;5052837;28;20075;-71
2021/04/18 05:03:03;;;;;;;40.65;20.50;;;8.20;98.30;;;;;;5049987;28;20115;-70
2021/04/18 05:05:29;;;;;;;62.33;23.58;;;8.30;98.40;;;;;;5033557;28;20038;-72
2021/04/18 05:07:54;;;;;;;47.72;21.38;;;8.20;98.40;;;;;;5032753;28;20035;-72
2021/04/18 05:10:20;;;;;;;50.47;23.58;;;8.30;98.40;;;;;;5051214;28;20115;-72
2021/04/18 05:12:45;;;;;;;49.83;21.52;;;8.30;98.50;;;;;;5049505;28;20029;-69
2021/04/18 05:15:13;;;;;;;52.55;22.38;;;8.30;98.50;;;;;;5050764;28;20025;-68
2021/04/18 05:17:38;;;;;;;51.00;22.77;;;8.30;98.60;;;;;;5049358;28;20549;-69
2021/04/18 05:20:04;;;;;;;42.30;21.35;;;8.30;98.80;;;;;;5051101;28;20108;-72
2021/04/18 05:22:30;;;;;;;50.80;23.13;;;8.40;98.50;;;;;;5048265;28;20037;-69
2021/04/18 05:24:55;;;;;;;42.72;20.42;;;8.40;98.50;;;;;;5034471;28;20043;-70
2021/04/18 05:27:21;;;;;;;44.17;21.05;;;8.50;98.50;;;;;;5040975;28;20104;-72
2021/04/18 05:29:47;;;;;;;40.72;20.30;;;8.60;98.50;;;;;;5052577;28;20087;-68
2021/04/18 05:32:12;;;;;;;51.42;21.75;;;8.60;98.40;;;;;;5031623;28;20037;-69
2021/04/18 05:34:38;;;;;;;44.40;21.63;;;8.60;98.30;;;;;;5032568;28;20394;-68
2021/04/18 05:37:04;;;;;;;45.30;21.10;;;8.70;98.10;;;;;;5033756;28;20017;-70
2021/04/18 05:39:30;;;;;;;45.80;22.70;;;8.60;98.10;;;;;;5048442;28;20037;-69
2021/04/18 05:41:55;;;;;;;43.10;21.00;;;8.60;98.10;;;;;;5037450;28;20075;-70
2021/04/18 05:44:21;;;;;;;39.20;19.73;;;8.60;98.00;;;;;;5052104;28;20037;-71
2021/04/18 05:46:46;;;;;;;44.75;22.20;;;8.60;98.00;;;;;;5049271;28;20107;-71
2021/04/18 05:49:12;;;;;;;45.35;21.23;;;8.60;98.20;;;;;;5034690;28;20068;-71
2021/04/18 05:51:38;;;;;;;47.35;21.77;;;8.50;98.20;;;;;;5030728;28;20018;-71
2021/04/18 05:54:05;;;;;;;42.75;21.10;;;8.40;98.30;;;;;;5051380;28;20029;-71
2021/04/18 05:56:31;;;;;;;41.33;20.35;;;8.50;98.30;;;;;;5051590;28;20158;-72
2021/04/18 05:58:56;;;;;;;41.58;20.98;;;8.60;98.40;;;;;;5049570;28;20119;-73
2021/04/18 06:01:23;;;;;;;42.97;21.17;;;8.60;98.20;;;;;;5051593;28;20053;-72
2021/04/18 06:03:54;;;;;;;35.33;18.67;;;8.60;98.10;;;;;;5048526;28;20040;-74
2021/04/18 06:06:21;;;;;;;40.53;20.17;;;8.60;98.10;;;;;;5034979;28;20053;-74
2021/04/18 06:08:46;;;;;;;40.17;19.85;;;8.60;98.00;;;;;;5045455;28;20029;-73
2021/04/18 06:11:11;;;;;;;44.08;19.92;;;8.70;98.00;;;;;;5033020;28;20461;-74
2021/04/18 06:13:37;;;;;;;45.53;20.52;;;8.70;98.00;;;;;;5046219;28;20032;-72
2021/04/18 06:16:03;;;;;;;40.13;18.42;;;8.70;98.00;;;;;;5051660;28;20028;-72
2021/04/18 06:18:28;;;;;;;41.95;20.50;;;8.80;98.10;;;;;;5048023;28;20032;-72
2021/04/18 06:20:54;;;;;;;47.60;22.35;;;8.80;98.20;;;;;;5049510;28;20312;-72
2021/04/18 06:23:21;;;;;;;47.17;22.85;;;8.90;97.90;;;;;;5048581;28;20036;-73
2021/04/18 06:25:47;;;;;;;49.08;22.40;;;8.90;97.80;;;;;;5048765;28;20044;-73
2021/04/18 06:28:12;;;;;;;47.55;22.08;;;8.80;97.80;;;;;;5036714;28;20021;-74
2021/04/18 06:30:38;;;;;;;44.38;22.60;;;8.80;97.90;;;;;;5012750;28;20037;-73
2021/04/18 06:33:03;;;;;;;58.72;24.33;;;8.80;97.90;;;;;;5031426;28;20030;-75
2021/04/18 06:35:29;;;;;;;54.35;25.05;;;8.70;98.20;;;;;;5032109;28;20225;-75
2021/04/18 06:37:54;;;;;;;54.35;23.25;;;8.60;98.20;;;;;;5012824;28;20019;-75
2021/04/18 06:40:20;;;;;;;54.58;22.13;;;8.60;98.40;;;;;;5022956;28;20021;-76
2021/04/18 06:42:45;;;;;;;49.88;21.20;;;8.60;98.30;;;;;;5038154;28;20037;-76
2021/04/18 06:45:11;;;;;;;47.47;21.90;;;8.50;98.30;;;;;;5031079;28;20033;-75
2021/04/18 06:47:40;;;;;;;49.63;23.08;;;8.60;98.30;;;;;;5037926;28;20036;-75
2021/04/18 06:50:09;;;;;;;47.22;21.13;;;8.60;98.30;;;;;;5031561;28;20041;-75
2021/04/18 06:52:35;;;;;;;57.03;24.90;;;8.60;98.40;;;;;;5045035;28;20071;-75
2021/04/18 06:55:05;;;;;;;51.67;24.13;;;8.50;98.70;;;;;;5047384;28;20394;-76
2021/04/18 06:57:30;;;;;;;51.90;23.27;;;8.50;98.60;;;;;;5027666;28;20405;-76
2021/04/18 06:59:56;;;;;;;47.63;21.00;;;8.60;98.60;;;;;;5042763;28;20032;-75
2021/04/18 07:02:30;;;;;;;48.15;21.50;;;8.60;98.60;;;;;;4995121;28;20074;-75
2021/04/18 07:05:11;;;;;;;49.50;23.73;;;8.70;98.80;;;;;;4988832;28;20038;-75
2021/04/18 07:07:38;;;;;;;46.80;22.02;;;8.70;98.60;;;;;;4997311;28;20050;-75
2021/04/18 07:10:08;;;;;;;49.88;23.08;;;8.70;98.50;;;;;;5008016;28;20029;-75
2021/04/18 07:12:34;;;;;;;58.55;28.40;;;8.70;98.50;;;;;;4997018;28;20033;-74
2021/04/18 07:15:01;;;;;;;43.58;23.33;;;8.70;98.60;;;;;;4981817;28;20102;-71
2021/04/18 07:17:27;;;;;;;51.40;25.70;;;8.80;98.60;;;;;;4990279;28;20530;-72
2021/04/18 07:20:11;;;;;;;50.60;22.88;;;8.80;98.50;;;;;;5005899;28;20029;-72
2021/04/18 07:22:37;;;;;;;50.17;22.77;;;8.80;98.60;;;;;;4990443;28;20490;-72
2021/04/18 07:25:04;;;;;;;42.45;21.95;;;8.80;98.60;;;;;;5011121;28;20080;-72
2021/04/18 07:27:47;;;;;;;38.35;20.17;;;8.80;98.60;;;;;;4995195;28;20034;-72
2021/04/18 07:30:15;;;;;;;41.95;21.73;;;8.80;98.70;;;;;;4989959;28;20546;-71
2021/04/18 07:32:43;;;;;;;47.45;21.15;;;8.80;98.70;;;;;;4996286;28;20037;-70
2021/04/18 07:35:35;;;;;;;40.08;19.55;;;8.90;98.70;;;;;;5001794;28;20413;-71
2021/04/18 07:38:14;;;;;;;36.88;17.50;;;9.00;98.70;;;;;;4997687;28;20025;-71
2021/04/18 07:40:39;;;;;;;32.65;16.67;;;9.00;98.50;;;;;;4992057;28;20034;-71
2021/04/18 07:43:09;;;;;;;35.22;17.08;;;9.00;98.30;;;;;;4970688;28;20491;-71
2021/04/18 07:45:36;;;;;;;32.70;17.08;;;9.00;98.20;;;;;;4991105;28;20046;-71
2021/04/18 07:48:02;;;;;;;36.28;18.45;;;8.90;98.10;;;;;;4994317;28;20030;-69
2021/04/18 07:50:28;;;;;;;32.55;17.52;;;8.90;98.20;;;;;;4980722;28;20559;-67
2021/04/18 07:52:54;;;;;;;31.13;17.75;;;8.90;98.30;;;;;;4993174;28;20026;-68
2021/04/18 07:55:20;;;;;;;30.92;16.38;;;8.90;98.40;;;;;;4986570;28;20018;-67
2021/04/18 07:57:46;;;;;;;34.60;17.60;;;8.90;98.50;;;;;;5002363;28;20162;-68
2021/04/18 08:00:13;;;;;;;31.40;16.92;;;8.90;98.70;;;;;;4994980;28;20062;-68
2021/04/18 08:02:41;;;;;;;33.58;17.13;;;9.00;98.60;;;;;;5010112;28;20049;-68
2021/04/18 08:05:11;;;;;;;28.15;16.20;;;9.00;98.60;;;;;;5017175;28;20030;-68
2021/04/18 08:07:58;;;;;;;32.42;17.55;;;9.00;98.60;;;;;;5013352;28;20066;-68
2021/04/18 08:10:31;;;;;;;32.25;16.05;;;9.00;98.50;;;;;;5013956;28;20037;-68
2021/04/18 08:13:08;;;;;;;26.15;15.60;;;9.00;98.50;;;;;;5012528;28;20486;-68
2021/04/18 08:15:38;;;;;;;31.88;16.42;;;9.00;98.50;;;;;;5006532;28;20045;-68
2021/04/18 08:18:15;;;;;;;31.10;17.52;;;9.00;98.50;;;;;;5012826;28;20038;-68
2021/04/18 08:20:45;;;;;;;27.73;15.65;;;9.10;98.50;;;;;;5012675;28;20061;-69
2021/04/18 08:23:17;;;;;;;29.02;15.15;;;9.00;98.50;;;;;;5010402;28;20095;-68
2021/04/18 08:26:05;;;;;;;28.23;16.30;;;9.10;98.50;;;;;;5013655;28;20121;-68
2021/04/18 08:28:32;;;;;;;25.85;15.20;;;9.10;98.50;;;;;;5022129;28;20674;-69
2021/04/18 08:31:08;;;;;;;22.08;14.10;;;9.20;98.50;;;;;;5016853;28;20030;-68
2021/04/18 08:33:40;;;;;;;23.20;13.32;;;9.20;98.50;;;;;;5028234;28;20486;-68
2021/04/18 08:36:23;;;;;;;24.67;15.68;;;9.30;98.50;;;;;;5006192;28;20037;-69
2021/04/18 08:39:08;;;;;;;23.15;14.48;;;9.30;98.70;;;;;;5012738;28;20037;-69
2021/04/18 08:41:52;;;;;;;20.60;13.70;;;9.40;98.60;;;;;;5015949;28;20029;-70
2021/04/18 08:44:30;;;;;;;20.98;13.13;;;9.40;98.60;;;;;;5003176;28;20528;-69
2021/04/18 08:47:03;;;;;;;19.63;11.55;;;9.50;98.70;;;;;;5012462;28;20193;-69
2021/04/18 08:49:36;;;;;;;16.63;11.68;;;9.50;98.50;;;;;;5013084;28;20033;-69
2021/04/18 08:52:04;;;;;;;16.17;10.55;;;9.60;98.40;;;;;;5014090;28;20549;-69
2021/04/18 08:54:36;;;;;;;16.20;10.98;;;9.60;98.10;;;;;;5026941;28;20038;-69
2021/04/18 08:57:07;;;;;;;17.42;10.85;;;9.60;97.70;;;;;;5014422;28;20034;-69
2021/04/18 08:59:33;;;;;;;16.92;11.57;;;9.60;97.70;;;;;;5027206;28;20037;-69
2021/04/18 09:02:06;;;;;;;17.27;11.75;;;9.60;97.90;;;;;;5011783;28;20057;-69
2021/04/18 09:04:35;;;;;;;13.77;9.70;;;9.50;97.80;;;;;;4996576;28;20061;-69
2021/04/18 09:07:01;;;;;;;17.42;10.43;;;9.50;97.70;;;;;;5012034;28;20033;-69
2021/04/18 09:09:30;;;;;;;15.90;11.00;;;9.50;97.70;;;;;;5018723;28;20038;-69
2021/04/18 09:11:57;;;;;;;18.30;11.85;;;9.50;97.70;;;;;;5014413;28;20390;-68
2021/04/18 09:14:31;;;;;;;17.90;11.95;;;9.50;97.70;;;;;;5011862;28;20057;-70
2021/04/18 09:17:08;;;;;;;19.00;12.82;;;9.50;97.70;;;;;;4994154;28;20123;-68
2021/04/18 09:19:33;;;;;;;16.08;10.98;;;9.50;97.70;;;;;;5012504;28;20060;-69
2021/04/18 09:22:05;;;;;;;18.20;12.43;;;9.50;97.60;;;;;;5011090;28;20503;-69
2021/04/18 09:24:42;;;;;;;18.60;12.30;;;9.40;97.70;;;;;;5012730;28;20037;-69
2021/04/18 09:27:17;;;;;;;16.60;11.40;;;9.40;97.90;;;;;;5011081;28;20034;-69
2021/04/18 09:29:46;;;;;;;19.95;11.95;;;9.40;98.00;;;;;;5011838;28;20092;-69
2021/04/18 09:32:16;;;;;;;17.67;11.43;;;9.40;98.30;;;;;;5014235;28;20691;-70
2021/04/18 09:34:43;;;;;;;17.95;11.70;;;9.50;98.30;;;;;;5012672;28;20076;-70
2021/04/18 09:37:16;;;;;;;18.17;11.80;;;9.60;98.50;;;;;;5011953;28;20167;-71
2021/04/18 09:39:42;;;;;;;19.00;11.38;;;9.70;98.50;;;;;;5013015;28;20030;-70
2021/04/18 09:42:09;;;;;;;18.38;12.13;;;9.80;98.60;;;;;;5000713;28;20017;-71
2021/04/18 09:44:45;;;;;;;16.42;11.70;;;9.90;98.60;;;;;;5015283;28;20514;-70
2021/04/18 09:47:23;;;;;;;16.50;11.38;;;10.00;98.80;;;;;;5006505;28;20045;-71
2021/04/18 09:49:52;;;;;;;16.67;11.40;;;10.20;98.50;;;;;;5011403;28;20037;-71
2021/04/18 09:52:35;;;;;;;14.52;10.32;;;10.40;98.30;;;;;;5006331;28;20034;-71
2021/04/18 09:55:08;;;;;;;15.95;10.40;;;10.50;98.00;;;;;;5011602;28;20057;-71
2021/04/18 09:57:59;;;;;;;14.45;9.77;;;10.60;97.70;;;;;;5017276;28;20061;-71
2021/04/18 10:00:30;;;;;;;14.63;9.43;;;10.70;97.80;;;;;;5005038;28;20517;-71
2021/04/18 10:02:57;;;;;;;13.07;9.15;;;10.80;97.90;;;;;;4993465;28;20034;-71
2021/04/18 10:05:22;;;;;;;15.88;10.70;;;11.00;97.80;;;;;;4987333;28;20034;-71
2021/04/18 10:07:48;;;;;;;12.70;9.73;;;11.20;97.60;;;;;;4990305;28;20387;-72
2021/04/18 10:10:30;;;;;;;12.90;9.30;;;11.40;97.20;;;;;;4989994;28;20054;-72
2021/04/18 10:12:56;;;;;;;13.63;9.32;;;11.50;97.20;;;;;;4997378;28;20030;-73
2021/04/18 10:15:22;;;;;;;14.50;9.73;;;11.60;97.10;;;;;;4992575;28;20030;-71
2021/04/18 10:17:48;;;;;;;13.73;9.80;;;11.90;97.00;;;;;;4991803;28;20502;-71
2021/04/18 10:20:26;;;;;;;13.07;8.70;;;12.00;96.60;;;;;;4992103;28;20054;-69
2021/04/18 10:23:09;;;;;;;12.75;9.18;;;12.20;96.50;;;;;;4992332;28;20494;-72
2021/04/18 10:25:37;;;;;;;13.55;9.45;;;12.40;96.20;;;;;;4994538;28;20084;-71
2021/04/18 10:28:03;;;;;;;13.20;8.88;;;12.40;96.00;;;;;;5001445;28;20025;-69
2021/04/18 10:30:29;;;;;;;12.52;9.38;;;12.50;95.40;;;;;;5000069;28;20030;-70
2021/04/18 10:32:55;;;;;;;12.02;9.02;;;12.50;95.00;;;;;;5010275;28;20526;-71
2021/04/18 10:35:21;;;;;;;11.88;8.90;;;12.50;95.10;;;;;;4997302;28;20113;-70
2021/04/18 10:37:51;;;;;;;12.43;9.15;;;12.50;94.80;;;;;;4972795;28;20489;-71
2021/04/18 10:40:21;;;;;;;11.73;8.93;;;12.50;94.60;;;;;;4969149;28;20034;-71
2021/04/18 10:42:47;;;;;;;12.32;8.57;;;12.50;94.50;;;;;;4983135;28;20033;-71
2021/04/18 10:45:13;;;;;;;11.23;8.45;;;12.50;94.40;;;;;;4989854;28;20046;-70
2021/04/18 10:47:38;;;;;;;11.75;8.93;;;12.40;94.50;;;;;;4992942;28;20034;-70
2021/04/18 10:50:05;;;;;;;13.63;9.73;;;12.40;94.70;;;;;;4989228;28;20031;-71
2021/04/18 10:52:31;;;;;;;13.95;9.27;;;12.30;95.00;;;;;;5004955;28;20030;-71
2021/04/18 10:54:57;;;;;;;11.20;8.52;;;12.40;94.80;;;;;;4997709;28;20073;-71
2021/04/18 10:57:23;;;;;;;13.05;9.27;;;12.40;94.30;;;;;;4995038;28;20447;-71
2021/04/18 10:59:49;;;;;;;11.05;8.48;;;12.50;94.50;;;;;;4995086;28;20042;-69
2021/04/18 11:02:14;;;;;;;11.13;8.93;;;12.50;94.40;;;;;;5012894;28;20053;-69
2021/04/18 11:04:40;;;;;;;12.00;8.43;;;12.50;94.50;;;;;;5015181;28;20052;-69
2021/04/18 11:07:05;;;;;;;13.23;9.52;;;12.50;94.50;;;;;;5010351;28;20048;-70
2021/04/18 11:09:31;;;;;;;10.75;7.78;;;12.60;94.50;;;;;;5018208;28;20545;-69
2021/04/18 11:11:57;;;;;;;12.48;9.25;;;12.60;94.30;;;;;;5006359;28;20109;-70
2021/04/18 11:14:23;;;;;;;13.10;9.30;;;12.50;94.20;;;;;;5001045;28;20026;-71
2021/04/18 11:16:48;;;;;;;12.57;8.88;;;12.50;94.60;;;;;;4998566;28;20061;-70
2021/04/18 11:19:14;;;;;;;11.77;9.07;;;12.60;94.80;;;;;;5018482;28;20030;-72
2021/04/18 11:21:39;;;;;;;12.10;9.23;;;12.70;94.80;;;;;;5004746;28;20029;-70
2021/04/18 11:24:07;;;;;;;13.85;10.65;;;12.80;94.70;;;;;;5022430;28;20034;-71
2021/04/18 11:26:33;;;;;;;14.70;8.90;;;12.80;94.50;;;;;;5013932;28;20486;-71
2021/04/18 11:28:58;;;;;;;12.30;8.85;;;12.90;94.50;;;;;;5013622;28;20026;-71
2021/04/18 11:31:25;;;;;;;14.23;9.68;;;13.00;94.60;;;;;;5014044;28;20495;-71
2021/04/18 11:33:51;;;;;;;11.57;8.75;;;13.00;94.30;;;;;;5030299;28;20037;-71
2021/04/18 11:36:18;;;;;;;11.15;9.20;;;13.00;94.60;;;;;;5025871;28;20639;-71
2021/04/18 11:38:43;;;;;;;12.00;8.23;;;13.00;94.30;;;;;;5029993;28;20037;-70
2021/04/18 11:41:09;;;;;;;13.77;10.65;;;13.10;94.30;;;;;;5025255;28;20155;-70
2021/04/18 11:43:35;;;;;;;11.82;9.63;;;13.10;94.20;;;;;;5027574;28;20061;-69
2021/04/18 11:46:00;;;;;;;13.52;10.57;;;13.10;93.90;;;;;;5029507;28;20038;-71
2021/04/18 11:48:26;;;;;;;13.50;9.52;;;13.10;94.00;;;;;;5013802;28;20033;-71
2021/04/18 11:50:51;;;;;;;12.48;9.77;;;12.90;94.00;;;;;;5013722;28;20371;-71
2021/04/18 11:53:17;;;;;;;13.10;9.70;;;12.90;94.40;;;;;;5025820;28;20021;-70
2021/04/18 11:55:42;;;;;;;12.93;9.70;;;13.00;94.20;;;;;;5015817;28;20048;-70
2021/04/18 11:58:09;;;;;;;15.40;9.70;;;13.10;94.30;;;;;;5011739;28;20030;-71
2021/04/18 12:00:35;;;;;;;13.38;10.27;;;13.10;93.90;;;;;;5012618;28;20049;-70
2021/04/18 12:03:01;;;;;;;13.75;10.73;;;13.20;93.90;;;;;;5023454;28;20544;-70
2021/04/18 12:05:27;;;;;;;15.68;10.20;;;13.20;94.10;;;;;;5005800;28;20042;-71
2021/04/18 12:07:52;;;;;;;11.80;9.35;;;13.30;94.10;;;;;;5005008;28;20032;-71
2021/04/18 12:10:18;;;;;;;11.52;9.00;;;13.60;94.00;;;;;;5012405;28;20048;-71
2021/04/18 12:12:44;;;;;;;17.55;10.75;;;13.80;93.70;;;;;;5020744;28;20028;-71
2021/04/18 12:15:12;;;;;;;13.63;10.27;;;13.90;93.60;;;;;;5009451;28;20034;-73
2021/04/18 12:17:38;;;;;;;15.13;10.93;;;14.00;93.10;;;;;;5013710;28;20033;-74
2021/04/18 12:20:06;;;;;;;14.65;10.85;;;14.00;92.50;;;;;;5013833;28;20368;-71
2021/04/18 12:22:31;;;;;;;13.18;10.27;;;14.00;92.50;;;;;;5009868;28;20061;-72
2021/04/18 12:24:57;;;;;;;14.23;10.70;;;14.00;92.70;;;;;;5013835;28;20065;-72
2021/04/18 12:27:23;;;;;;;14.55;9.93;;;14.00;92.40;;;;;;5012356;28;20061;-72
2021/04/18 12:29:48;;;;;;;17.08;11.82;;;14.00;92.30;;;;;;5018995;28;20033;-72
2021/04/18 12:32:14;;;;;;;14.65;11.52;;;14.00;92.30;;;;;;5015036;28;20021;-72
2021/04/18 12:34:39;;;;;;;14.90;11.38;;;14.00;92.50;;;;;;5007752;28;20108;-72
2021/04/18 12:37:05;;;;;;;14.63;11.07;;;14.00;92.30;;;;;;5016893;28;20033;-76
2021/04/18 12:39:31;;;;;;;15.02;11.60;;;13.90;92.20;;;;;;5016268;28;20038;-72